sensor_id;sensor_type;location;lat;lon;timestamp;P1;durP1;ratioP1;P2;durP2;ratioP2
8474;SDS011;4274;52.012;8.448;2022-09-09T00:03:53;46.60;;;2.27;;
8474;SDS011;4274;52.012;8.448;2022-09-09T00:06:42;54.83;;;2.80;;
8474;SDS011;4274;52.012;8.448;2022-09-09T00:09:15;48.20;;;2.63;;
8474;SDS011;4274;52.012;8.448;2022-09-09T00:11:43;52.37;;;2.77;;
8474;SDS011;4274;52.012;8.448;2022-09-09T00:14:22;51.10;;;2.60;;
8474;SDS011;4274;52.012;8.448;2022-09-09T00:17:14;46.17;;;2.10;;
8474;SDS011;4274;52.012;8.448;2022-09-09T00:20:01;46.70;;;2.40;;
8474;SDS011;4274;52.012;8.448;2022-09-09T00:22:35;47.23;;;2.80;;
8474;SDS011;4274;52.012;8.448;2022-09-09T00:25:19;45.87;;;2.30;;
8474;SDS011;4274;52.012;8.448;2022-09-09T00:27:52;47.63;;;2.33;;
8474;SDS011;4274;52.012;8.448;2022-09-09T00:30:23;44.77;;;2.20;;
8474;SDS011;4274;52.012;8.448;2022-09-09T00:32:55;47.50;;;2.50;;
8474;SDS011;4274;52.012;8.448;2022-09-09T00:35:27;49.47;;;3.07;;
8474;SDS011;4274;52.012;8.448;2022-09-09T00:41:17;47.33;;;2.33;;
8474;SDS011;4274;52.012;8.448;2022-09-09T00:49:25;48.80;;;2.53;;
8474;SDS011;4274;52.012;8.448;2022-09-09T00:57:36;47.47;;;2.70;;
8474;SDS011;4274;52.012;8.448;2022-09-09T01:07:57;47.40;;;2.53;;
8474;SDS011;4274;52.012;8.448;2022-09-09T01:10:40;47.83;;;3.83;;
8474;SDS011;4274;52.012;8.448;2022-09-09T01:13:25;52.33;;;2.93;;
8474;SDS011;4274;52.012;8.448;2022-09-09T01:15:55;46.43;;;2.40;;
8474;SDS011;4274;52.012;8.448;2022-09-09T01:18:26;45.10;;;2.57;;
8474;SDS011;4274;52.012;8.448;2022-09-09T01:21:03;48.23;;;3.07;;
8474;SDS011;4274;52.012;8.448;2022-09-09T01:23:48;48.33;;;3.00;;
8474;SDS011;4274;52.012;8.448;2022-09-09T01:26:26;49.23;;;2.87;;
8474;SDS011;4274;52.012;8.448;2022-09-09T01:28:55;47.97;;;2.80;;
8474;SDS011;4274;52.012;8.448;2022-09-09T01:31:23;50.30;;;2.93;;
8474;SDS011;4274;52.012;8.448;2022-09-09T01:33:53;53.70;;;3.47;;
8474;SDS011;4274;52.012;8.448;2022-09-09T01:39:19;50.77;;;3.07;;
8474;SDS011;4274;52.012;8.448;2022-09-09T01:41:45;45.13;;;2.83;;
8474;SDS011;4274;52.012;8.448;2022-09-09T01:44:11;46.87;;;2.87;;
8474;SDS011;4274;52.012;8.448;2022-09-09T01:46:37;49.27;;;3.20;;
8474;SDS011;4274;52.012;8.448;2022-09-09T01:49:03;45.73;;;2.83;;
8474;SDS011;4274;52.012;8.448;2022-09-09T01:51:32;50.10;;;2.93;;
8474;SDS011;4274;52.012;8.448;2022-09-09T01:53:58;49.00;;;3.73;;
8474;SDS011;4274;52.012;8.448;2022-09-09T02:07:10;45.57;;;2.90;;
8474;SDS011;4274;52.012;8.448;2022-09-09T02:10:10;49.37;;;3.47;;
8474;SDS011;4274;52.012;8.448;2022-09-09T02:12:47;46.87;;;3.20;;
8474;SDS011;4274;52.012;8.448;2022-09-09T02:15:23;47.93;;;3.00;;
8474;SDS011;4274;52.012;8.448;2022-09-09T02:17:55;49.20;;;3.00;;
8474;SDS011;4274;52.012;8.448;2022-09-09T02:20:23;47.13;;;2.90;;
8474;SDS011;4274;52.012;8.448;2022-09-09T02:22:51;46.83;;;2.67;;
8474;SDS011;4274;52.012;8.448;2022-09-09T02:25:19;46.13;;;2.60;;
8474;SDS011;4274;52.012;8.448;2022-09-09T02:27:49;48.73;;;2.93;;
8474;SDS011;4274;52.012;8.448;2022-09-09T02:30:16;50.37;;;2.97;;
8474;SDS011;4274;52.012;8.448;2022-09-09T02:32:43;45.97;;;2.80;;
8474;SDS011;4274;52.012;8.448;2022-09-09T02:35:12;49.77;;;3.43;;
8474;SDS011;4274;52.012;8.448;2022-09-09T02:37:40;49.00;;;3.43;;
8474;SDS011;4274;52.012;8.448;2022-09-09T02:40:07;46.33;;;2.70;;
8474;SDS011;4274;52.012;8.448;2022-09-09T02:42:39;50.80;;;4.23;;
8474;SDS011;4274;52.012;8.448;2022-09-09T02:45:06;48.87;;;2.90;;
8474;SDS011;4274;52.012;8.448;2022-09-09T02:50:25;49.00;;;3.50;;
8474;SDS011;4274;52.012;8.448;2022-09-09T02:53:16;46.10;;;2.50;;
8474;SDS011;4274;52.012;8.448;2022-09-09T02:55:47;55.80;;;2.97;;
8474;SDS011;4274;52.012;8.448;2022-09-09T02:58:17;50.20;;;3.10;;
8474;SDS011;4274;52.012;8.448;2022-09-09T03:00:45;49.10;;;3.17;;
8474;SDS011;4274;52.012;8.448;2022-09-09T03:03:12;47.53;;;3.17;;
8474;SDS011;4274;52.012;8.448;2022-09-09T03:05:38;47.40;;;3.03;;
8474;SDS011;4274;52.012;8.448;2022-09-09T03:08:04;49.60;;;2.90;;
8474;SDS011;4274;52.012;8.448;2022-09-09T03:10:30;45.33;;;2.90;;
8474;SDS011;4274;52.012;8.448;2022-09-09T03:12:56;50.60;;;3.70;;
8474;SDS011;4274;52.012;8.448;2022-09-09T03:15:22;46.00;;;2.80;;
8474;SDS011;4274;52.012;8.448;2022-09-09T03:17:48;46.40;;;3.07;;
8474;SDS011;4274;52.012;8.448;2022-09-09T03:20:13;48.07;;;3.10;;
8474;SDS011;4274;52.012;8.448;2022-09-09T03:22:39;51.87;;;4.20;;
8474;SDS011;4274;52.012;8.448;2022-09-09T03:25:05;45.67;;;3.10;;
8474;SDS011;4274;52.012;8.448;2022-09-09T03:27:31;46.40;;;3.17;;
8474;SDS011;4274;52.012;8.448;2022-09-09T03:29:57;45.60;;;3.30;;
8474;SDS011;4274;52.012;8.448;2022-09-09T03:32:23;51.43;;;3.53;;
8474;SDS011;4274;52.012;8.448;2022-09-09T03:34:50;47.93;;;3.57;;
8474;SDS011;4274;52.012;8.448;2022-09-09T03:37:17;44.90;;;2.93;;
8474;SDS011;4274;52.012;8.448;2022-09-09T03:39:43;57.00;;;3.20;;
8474;SDS011;4274;52.012;8.448;2022-09-09T03:42:09;48.10;;;3.37;;
8474;SDS011;4274;52.012;8.448;2022-09-09T03:44:37;48.17;;;3.40;;
8474;SDS011;4274;52.012;8.448;2022-09-09T03:47:02;46.80;;;3.43;;
8474;SDS011;4274;52.012;8.448;2022-09-09T03:49:28;50.43;;;3.00;;
8474;SDS011;4274;52.012;8.448;2022-09-09T03:51:55;59.20;;;3.63;;
8474;SDS011;4274;52.012;8.448;2022-09-09T03:54:22;50.70;;;3.90;;
8474;SDS011;4274;52.012;8.448;2022-09-09T03:56:49;47.37;;;3.53;;
8474;SDS011;4274;52.012;8.448;2022-09-09T03:59:14;46.53;;;3.57;;
8474;SDS011;4274;52.012;8.448;2022-09-09T04:01:40;46.60;;;3.80;;
8474;SDS011;4274;52.012;8.448;2022-09-09T04:04:05;47.53;;;3.40;;
8474;SDS011;4274;52.012;8.448;2022-09-09T04:06:31;45.43;;;3.23;;
8474;SDS011;4274;52.012;8.448;2022-09-09T04:08:56;50.30;;;3.47;;
8474;SDS011;4274;52.012;8.448;2022-09-09T04:11:22;53.27;;;3.70;;
8474;SDS011;4274;52.012;8.448;2022-09-09T04:13:47;50.53;;;3.60;;
8474;SDS011;4274;52.012;8.448;2022-09-09T04:16:14;46.67;;;3.40;;
8474;SDS011;4274;52.012;8.448;2022-09-09T04:18:40;44.90;;;3.37;;
8474;SDS011;4274;52.012;8.448;2022-09-09T04:21:06;50.33;;;3.50;;
8474;SDS011;4274;52.012;8.448;2022-09-09T04:23:32;46.37;;;3.00;;
8474;SDS011;4274;52.012;8.448;2022-09-09T04:25:59;52.60;;;3.50;;
8474;SDS011;4274;52.012;8.448;2022-09-09T04:28:28;47.83;;;3.23;;
8474;SDS011;4274;52.012;8.448;2022-09-09T04:30:55;48.70;;;3.20;;
8474;SDS011;4274;52.012;8.448;2022-09-09T04:33:24;49.40;;;3.53;;
8474;SDS011;4274;52.012;8.448;2022-09-09T04:35:53;48.73;;;3.80;;
8474;SDS011;4274;52.012;8.448;2022-09-09T04:38:18;52.13;;;3.77;;
8474;SDS011;4274;52.012;8.448;2022-09-09T04:40:48;50.30;;;4.77;;
8474;SDS011;4274;52.012;8.448;2022-09-09T04:43:15;46.47;;;3.93;;
8474;SDS011;4274;52.012;8.448;2022-09-09T04:45:41;49.20;;;3.83;;
8474;SDS011;4274;52.012;8.448;2022-09-09T04:48:07;46.67;;;3.73;;
8474;SDS011;4274;52.012;8.448;2022-09-09T04:50:34;49.00;;;3.77;;
8474;SDS011;4274;52.012;8.448;2022-09-09T04:53:03;50.47;;;4.03;;
8474;SDS011;4274;52.012;8.448;2022-09-09T04:55:30;48.40;;;3.70;;
8474;SDS011;4274;52.012;8.448;2022-09-09T04:57:56;49.00;;;3.63;;
8474;SDS011;4274;52.012;8.448;2022-09-09T05:00:22;48.50;;;4.30;;
8474;SDS011;4274;52.012;8.448;2022-09-09T05:02:51;46.53;;;3.40;;
8474;SDS011;4274;52.012;8.448;2022-09-09T05:05:16;47.33;;;3.63;;
8474;SDS011;4274;52.012;8.448;2022-09-09T05:07:43;47.90;;;4.33;;
8474;SDS011;4274;52.012;8.448;2022-09-09T05:10:09;49.20;;;3.87;;
8474;SDS011;4274;52.012;8.448;2022-09-09T05:12:35;49.37;;;4.03;;
8474;SDS011;4274;52.012;8.448;2022-09-09T05:15:01;48.93;;;4.03;;
8474;SDS011;4274;52.012;8.448;2022-09-09T05:17:26;51.20;;;4.27;;
8474;SDS011;4274;52.012;8.448;2022-09-09T05:19:52;54.33;;;3.90;;
8474;SDS011;4274;52.012;8.448;2022-09-09T05:22:21;48.40;;;3.43;;
8474;SDS011;4274;52.012;8.448;2022-09-09T05:24:48;51.47;;;4.30;;
8474;SDS011;4274;52.012;8.448;2022-09-09T05:27:16;45.40;;;3.63;;
8474;SDS011;4274;52.012;8.448;2022-09-09T05:29:44;50.70;;;4.80;;
8474;SDS011;4274;52.012;8.448;2022-09-09T05:32:10;49.00;;;4.30;;
8474;SDS011;4274;52.012;8.448;2022-09-09T05:34:36;48.40;;;3.83;;
8474;SDS011;4274;52.012;8.448;2022-09-09T05:37:04;47.00;;;3.70;;
8474;SDS011;4274;52.012;8.448;2022-09-09T05:39:31;49.00;;;4.00;;
8474;SDS011;4274;52.012;8.448;2022-09-09T05:41:57;48.37;;;4.20;;
8474;SDS011;4274;52.012;8.448;2022-09-09T05:44:23;48.33;;;3.80;;
8474;SDS011;4274;52.012;8.448;2022-09-09T05:46:52;48.00;;;4.20;;
8474;SDS011;4274;52.012;8.448;2022-09-09T05:49:19;50.87;;;4.33;;
8474;SDS011;4274;52.012;8.448;2022-09-09T05:51:44;47.70;;;3.67;;
8474;SDS011;4274;52.012;8.448;2022-09-09T05:54:10;51.60;;;4.20;;
8474;SDS011;4274;52.012;8.448;2022-09-09T05:56:36;48.90;;;4.40;;
8474;SDS011;4274;52.012;8.448;2022-09-09T05:59:02;52.07;;;4.63;;
8474;SDS011;4274;52.012;8.448;2022-09-09T06:01:29;49.00;;;4.03;;
8474;SDS011;4274;52.012;8.448;2022-09-09T06:03:56;51.57;;;3.80;;
8474;SDS011;4274;52.012;8.448;2022-09-09T06:06:23;50.27;;;4.13;;
8474;SDS011;4274;52.012;8.448;2022-09-09T06:08:51;54.17;;;3.80;;
8474;SDS011;4274;52.012;8.448;2022-09-09T06:11:22;48.80;;;4.00;;
8474;SDS011;4274;52.012;8.448;2022-09-09T06:13:49;49.27;;;4.00;;
8474;SDS011;4274;52.012;8.448;2022-09-09T06:16:20;47.80;;;3.70;;
8474;SDS011;4274;52.012;8.448;2022-09-09T06:18:51;46.20;;;3.47;;
8474;SDS011;4274;52.012;8.448;2022-09-09T06:21:18;58.40;;;4.13;;
8474;SDS011;4274;52.012;8.448;2022-09-09T06:23:46;52.30;;;3.60;;
8474;SDS011;4274;52.012;8.448;2022-09-09T06:26:17;46.03;;;3.80;;
8474;SDS011;4274;52.012;8.448;2022-09-09T06:28:48;51.13;;;4.00;;
8474;SDS011;4274;52.012;8.448;2022-09-09T06:31:19;54.50;;;3.50;;
8474;SDS011;4274;52.012;8.448;2022-09-09T06:33:52;49.40;;;4.10;;
8474;SDS011;4274;52.012;8.448;2022-09-09T06:36:30;51.27;;;4.63;;
8474;SDS011;4274;52.012;8.448;2022-09-09T06:38:57;49.10;;;3.90;;
8474;SDS011;4274;52.012;8.448;2022-09-09T06:41:24;48.93;;;4.23;;
8474;SDS011;4274;52.012;8.448;2022-09-09T06:43:54;47.37;;;3.97;;
8474;SDS011;4274;52.012;8.448;2022-09-09T06:46:23;46.57;;;3.37;;
8474;SDS011;4274;52.012;8.448;2022-09-09T06:48:55;50.77;;;3.77;;
8474;SDS011;4274;52.012;8.448;2022-09-09T06:51:24;46.20;;;3.20;;
8474;SDS011;4274;52.012;8.448;2022-09-09T06:53:52;50.13;;;3.77;;
8474;SDS011;4274;52.012;8.448;2022-09-09T06:56:24;47.40;;;3.07;;
8474;SDS011;4274;52.012;8.448;2022-09-09T06:58:54;49.67;;;3.47;;
8474;SDS011;4274;52.012;8.448;2022-09-09T07:01:23;53.00;;;3.60;;
8474;SDS011;4274;52.012;8.448;2022-09-09T07:03:54;47.47;;;3.40;;
8474;SDS011;4274;52.012;8.448;2022-09-09T07:06:24;49.80;;;3.57;;
8474;SDS011;4274;52.012;8.448;2022-09-09T07:08:51;53.10;;;3.33;;
8474;SDS011;4274;52.012;8.448;2022-09-09T07:11:29;50.17;;;3.93;;
8474;SDS011;4274;52.012;8.448;2022-09-09T07:13:58;54.23;;;3.80;;
8474;SDS011;4274;52.012;8.448;2022-09-09T07:16:24;47.20;;;3.50;;
8474;SDS011;4274;52.012;8.448;2022-09-09T07:18:52;48.03;;;3.70;;
8474;SDS011;4274;52.012;8.448;2022-09-09T07:21:20;50.73;;;3.20;;
8474;SDS011;4274;52.012;8.448;2022-09-09T07:23:46;49.80;;;3.63;;
8474;SDS011;4274;52.012;8.448;2022-09-09T07:26:13;50.30;;;3.70;;
8474;SDS011;4274;52.012;8.448;2022-09-09T07:28:40;47.33;;;3.47;;
8474;SDS011;4274;52.012;8.448;2022-09-09T07:31:06;54.13;;;3.33;;
8474;SDS011;4274;52.012;8.448;2022-09-09T07:33:38;53.13;;;3.00;;
8474;SDS011;4274;52.012;8.448;2022-09-09T07:36:09;49.10;;;3.67;;
8474;SDS011;4274;52.012;8.448;2022-09-09T07:38:41;51.47;;;3.77;;
8474;SDS011;4274;52.012;8.448;2022-09-09T07:41:10;48.30;;;3.23;;
8474;SDS011;4274;52.012;8.448;2022-09-09T07:43:39;46.40;;;3.20;;
8474;SDS011;4274;52.012;8.448;2022-09-09T07:46:09;49.50;;;3.60;;
8474;SDS011;4274;52.012;8.448;2022-09-09T07:48:36;51.67;;;3.53;;
8474;SDS011;4274;52.012;8.448;2022-09-09T07:51:10;52.13;;;4.17;;
8474;SDS011;4274;52.012;8.448;2022-09-09T07:53:45;52.17;;;3.80;;
8474;SDS011;4274;52.012;8.448;2022-09-09T07:56:12;52.70;;;3.40;;
8474;SDS011;4274;52.012;8.448;2022-09-09T07:58:41;46.93;;;3.40;;
8474;SDS011;4274;52.012;8.448;2022-09-09T08:01:08;49.07;;;3.10;;
8474;SDS011;4274;52.012;8.448;2022-09-09T08:03:36;50.40;;;3.10;;
8474;SDS011;4274;52.012;8.448;2022-09-09T08:06:05;53.63;;;3.27;;
8474;SDS011;4274;52.012;8.448;2022-09-09T08:08:33;51.73;;;3.53;;
8474;SDS011;4274;52.012;8.448;2022-09-09T08:11:04;52.37;;;3.47;;
8474;SDS011;4274;52.012;8.448;2022-09-09T08:13:35;49.27;;;2.97;;
8474;SDS011;4274;52.012;8.448;2022-09-09T08:16:10;47.73;;;3.07;;
8474;SDS011;4274;52.012;8.448;2022-09-09T08:18:41;54.50;;;3.23;;
8474;SDS011;4274;52.012;8.448;2022-09-09T08:21:11;46.40;;;2.80;;
8474;SDS011;4274;52.012;8.448;2022-09-09T08:23:42;47.30;;;2.70;;
8474;SDS011;4274;52.012;8.448;2022-09-09T08:26:12;53.90;;;3.30;;
8474;SDS011;4274;52.012;8.448;2022-09-09T08:28:40;52.37;;;2.90;;
8474;SDS011;4274;52.012;8.448;2022-09-09T08:31:08;49.47;;;3.37;;
8474;SDS011;4274;52.012;8.448;2022-09-09T08:33:39;51.10;;;3.50;;
8474;SDS011;4274;52.012;8.448;2022-09-09T08:36:06;49.87;;;2.53;;
8474;SDS011;4274;52.012;8.448;2022-09-09T08:38:34;49.30;;;2.63;;
8474;SDS011;4274;52.012;8.448;2022-09-09T08:41:13;53.17;;;2.50;;
8474;SDS011;4274;52.012;8.448;2022-09-09T08:43:48;48.30;;;2.40;;
8474;SDS011;4274;52.012;8.448;2022-09-09T08:48:56;50.40;;;3.20;;
8474;SDS011;4274;52.012;8.448;2022-09-09T08:51:27;52.43;;;2.63;;
8474;SDS011;4274;52.012;8.448;2022-09-09T08:53:56;56.43;;;3.40;;
8474;SDS011;4274;52.012;8.448;2022-09-09T08:56:25;47.83;;;2.23;;
8474;SDS011;4274;52.012;8.448;2022-09-09T08:58:56;46.10;;;2.40;;
8474;SDS011;4274;52.012;8.448;2022-09-09T09:12:57;48.30;;;2.50;;
8474;SDS011;4274;52.012;8.448;2022-09-09T09:15:25;49.33;;;2.70;;
8474;SDS011;4274;52.012;8.448;2022-09-09T09:17:55;49.20;;;2.67;;
8474;SDS011;4274;52.012;8.448;2022-09-09T09:20:25;48.70;;;2.40;;
8474;SDS011;4274;52.012;8.448;2022-09-09T09:22:57;51.13;;;2.17;;
8474;SDS011;4274;52.012;8.448;2022-09-09T09:25:32;48.17;;;2.37;;
8474;SDS011;4274;52.012;8.448;2022-09-09T09:30:44;48.27;;;2.33;;
8474;SDS011;4274;52.012;8.448;2022-09-09T09:33:18;49.33;;;2.40;;
8474;SDS011;4274;52.012;8.448;2022-09-09T09:35:49;47.57;;;2.30;;
8474;SDS011;4274;52.012;8.448;2022-09-09T09:38:22;51.73;;;2.30;;
8474;SDS011;4274;52.012;8.448;2022-09-09T09:40:54;48.00;;;1.97;;
8474;SDS011;4274;52.012;8.448;2022-09-09T09:43:34;47.30;;;2.13;;
8474;SDS011;4274;52.012;8.448;2022-09-09T09:46:05;48.90;;;2.20;;
8474;SDS011;4274;52.012;8.448;2022-09-09T09:48:42;48.03;;;1.80;;
8474;SDS011;4274;52.012;8.448;2022-09-09T09:51:12;57.20;;;2.30;;
8474;SDS011;4274;52.012;8.448;2022-09-09T09:53:41;48.67;;;2.20;;
8474;SDS011;4274;52.012;8.448;2022-09-09T09:56:12;48.73;;;2.17;;
8474;SDS011;4274;52.012;8.448;2022-09-09T10:01:19;52.47;;;2.70;;
8474;SDS011;4274;52.012;8.448;2022-09-09T10:03:52;51.67;;;2.30;;
8474;SDS011;4274;52.012;8.448;2022-09-09T10:06:33;51.50;;;2.27;;
8474;SDS011;4274;52.012;8.448;2022-09-09T10:09:01;49.40;;;2.60;;
8474;SDS011;4274;52.012;8.448;2022-09-09T10:16:50;48.83;;;2.07;;
8474;SDS011;4274;52.012;8.448;2022-09-09T10:19:37;47.57;;;1.83;;
8474;SDS011;4274;52.012;8.448;2022-09-09T10:25:05;47.07;;;1.90;;
8474;SDS011;4274;52.012;8.448;2022-09-09T10:31:02;49.10;;;2.50;;
8474;SDS011;4274;52.012;8.448;2022-09-09T10:33:37;49.63;;;2.10;;
8474;SDS011;4274;52.012;8.448;2022-09-09T10:38:45;49.57;;;1.97;;
8474;SDS011;4274;52.012;8.448;2022-09-09T10:41:15;51.73;;;2.63;;
8474;SDS011;4274;52.012;8.448;2022-09-09T10:51:44;52.13;;;2.27;;
8474;SDS011;4274;52.012;8.448;2022-09-09T10:54:23;49.37;;;2.03;;
8474;SDS011;4274;52.012;8.448;2022-09-09T10:57:13;49.93;;;2.37;;
8474;SDS011;4274;52.012;8.448;2022-09-09T10:59:47;55.30;;;2.70;;
8474;SDS011;4274;52.012;8.448;2022-09-09T11:02:21;54.00;;;1.80;;
8474;SDS011;4274;52.012;8.448;2022-09-09T11:04:55;50.73;;;1.93;;
8474;SDS011;4274;52.012;8.448;2022-09-09T11:07:48;54.17;;;2.50;;
8474;SDS011;4274;52.012;8.448;2022-09-09T11:10:21;51.67;;;2.20;;
8474;SDS011;4274;52.012;8.448;2022-09-09T11:12:59;48.30;;;1.70;;
8474;SDS011;4274;52.012;8.448;2022-09-09T11:15:41;50.20;;;2.10;;
8474;SDS011;4274;52.012;8.448;2022-09-09T11:18:12;50.80;;;1.60;;
8474;SDS011;4274;52.012;8.448;2022-09-09T11:20:43;52.37;;;2.13;;
8474;SDS011;4274;52.012;8.448;2022-09-09T11:23:14;50.27;;;2.20;;
8474;SDS011;4274;52.012;8.448;2022-09-09T11:25:48;50.17;;;2.00;;
8474;SDS011;4274;52.012;8.448;2022-09-09T11:28:28;49.43;;;2.07;;
8474;SDS011;4274;52.012;8.448;2022-09-09T11:37:12;50.90;;;2.30;;
8474;SDS011;4274;52.012;8.448;2022-09-09T11:42:20;53.10;;;1.97;;
8474;SDS011;4274;52.012;8.448;2022-09-09T11:44:48;49.50;;;2.00;;
8474;SDS011;4274;52.012;8.448;2022-09-09T11:47:19;49.80;;;2.17;;
8474;SDS011;4274;52.012;8.448;2022-09-09T11:49:46;51.17;;;2.37;;
8474;SDS011;4274;52.012;8.448;2022-09-09T11:55:11;52.80;;;2.30;;
8474;SDS011;4274;52.012;8.448;2022-09-09T11:58:01;52.37;;;2.03;;
8474;SDS011;4274;52.012;8.448;2022-09-09T12:08:55;51.97;;;2.10;;
8474;SDS011;4274;52.012;8.448;2022-09-09T12:11:37;48.67;;;2.03;;
8474;SDS011;4274;52.012;8.448;2022-09-09T12:14:02;49.33;;;1.80;;
8474;SDS011;4274;52.012;8.448;2022-09-09T12:16:37;57.00;;;2.10;;
8474;SDS011;4274;52.012;8.448;2022-09-09T12:19:14;51.63;;;2.30;;
8474;SDS011;4274;52.012;8.448;2022-09-09T12:21:45;49.80;;;1.80;;
8474;SDS011;4274;52.012;8.448;2022-09-09T12:24:37;48.50;;;1.83;;
8474;SDS011;4274;52.012;8.448;2022-09-09T12:30:15;50.10;;;1.97;;
8474;SDS011;4274;52.012;8.448;2022-09-09T12:32:39;50.63;;;1.93;;
8474;SDS011;4274;52.012;8.448;2022-09-09T12:35:24;48.60;;;1.73;;
8474;SDS011;4274;52.012;8.448;2022-09-09T12:37:54;50.83;;;2.10;;
8474;SDS011;4274;52.012;8.448;2022-09-09T12:40:26;54.20;;;2.70;;
8474;SDS011;4274;52.012;8.448;2022-09-09T12:42:53;49.60;;;2.17;;
8474;SDS011;4274;52.012;8.448;2022-09-09T12:45:23;51.37;;;2.13;;
8474;SDS011;4274;52.012;8.448;2022-09-09T12:50:21;49.17;;;1.90;;
8474;SDS011;4274;52.012;8.448;2022-09-09T12:52:51;53.53;;;2.30;;
8474;SDS011;4274;52.012;8.448;2022-09-09T12:55:23;48.77;;;1.83;;
8474;SDS011;4274;52.012;8.448;2022-09-09T12:57:52;52.60;;;2.87;;
8474;SDS011;4274;52.012;8.448;2022-09-09T13:00:21;50.00;;;2.10;;
8474;SDS011;4274;52.012;8.448;2022-09-09T13:02:53;50.57;;;2.20;;
8474;SDS011;4274;52.012;8.448;2022-09-09T13:05:21;54.10;;;1.90;;
8474;SDS011;4274;52.012;8.448;2022-09-09T13:07:52;51.60;;;2.73;;
8474;SDS011;4274;52.012;8.448;2022-09-09T13:10:27;50.47;;;3.03;;
8474;SDS011;4274;52.012;8.448;2022-09-09T13:12:55;50.80;;;2.23;;
8474;SDS011;4274;52.012;8.448;2022-09-09T13:15:24;50.27;;;2.47;;
8474;SDS011;4274;52.012;8.448;2022-09-09T13:17:54;48.47;;;1.97;;
8474;SDS011;4274;52.012;8.448;2022-09-09T13:20:22;47.60;;;1.90;;
8474;SDS011;4274;52.012;8.448;2022-09-09T13:22:50;49.40;;;2.07;;
8474;SDS011;4274;52.012;8.448;2022-09-09T13:25:19;49.40;;;2.20;;
8474;SDS011;4274;52.012;8.448;2022-09-09T13:27:59;48.17;;;1.90;;
8474;SDS011;4274;52.012;8.448;2022-09-09T13:30:29;47.40;;;2.00;;
8474;SDS011;4274;52.012;8.448;2022-09-09T13:36:26;48.17;;;1.93;;
8474;SDS011;4274;52.012;8.448;2022-09-09T13:38:36;47.70;;;1.83;;
8474;SDS011;4274;52.012;8.448;2022-09-09T13:41:04;49.70;;;2.00;;
8474;SDS011;4274;52.012;8.448;2022-09-09T13:43:38;46.37;;;1.60;;
8474;SDS011;4274;52.012;8.448;2022-09-09T13:49:00;46.97;;;1.57;;
8474;SDS011;4274;52.012;8.448;2022-09-09T13:51:34;47.90;;;1.73;;
8474;SDS011;4274;52.012;8.448;2022-09-09T13:54:02;47.73;;;1.70;;
8474;SDS011;4274;52.012;8.448;2022-09-09T13:56:31;50.90;;;1.90;;
8474;SDS011;4274;52.012;8.448;2022-09-09T13:58:57;47.53;;;1.90;;
8474;SDS011;4274;52.012;8.448;2022-09-09T14:01:23;48.03;;;1.90;;
8474;SDS011;4274;52.012;8.448;2022-09-09T14:03:49;47.87;;;1.70;;
8474;SDS011;4274;52.012;8.448;2022-09-09T14:06:15;49.00;;;1.83;;
8474;SDS011;4274;52.012;8.448;2022-09-09T14:08:41;47.37;;;1.70;;
8474;SDS011;4274;52.012;8.448;2022-09-09T14:11:08;52.40;;;2.23;;
8474;SDS011;4274;52.012;8.448;2022-09-09T14:13:37;47.47;;;1.70;;
8474;SDS011;4274;52.012;8.448;2022-09-09T14:16:02;50.60;;;1.93;;
8474;SDS011;4274;52.012;8.448;2022-09-09T14:18:28;46.70;;;1.70;;
8474;SDS011;4274;52.012;8.448;2022-09-09T14:20:54;47.67;;;1.63;;
8474;SDS011;4274;52.012;8.448;2022-09-09T14:23:19;47.77;;;1.80;;
8474;SDS011;4274;52.012;8.448;2022-09-09T14:25:46;53.20;;;1.97;;
8474;SDS011;4274;52.012;8.448;2022-09-09T14:28:13;49.23;;;1.80;;
8474;SDS011;4274;52.012;8.448;2022-09-09T14:30:40;49.37;;;1.90;;
8474;SDS011;4274;52.012;8.448;2022-09-09T14:33:07;48.87;;;1.73;;
8474;SDS011;4274;52.012;8.448;2022-09-09T14:35:34;48.40;;;1.87;;
8474;SDS011;4274;52.012;8.448;2022-09-09T14:38:01;48.57;;;2.20;;
8474;SDS011;4274;52.012;8.448;2022-09-09T14:40:27;47.57;;;1.80;;
8474;SDS011;4274;52.012;8.448;2022-09-09T14:42:53;47.47;;;1.77;;
8474;SDS011;4274;52.012;8.448;2022-09-09T14:45:19;47.70;;;1.90;;
8474;SDS011;4274;52.012;8.448;2022-09-09T14:47:46;46.77;;;1.80;;
8474;SDS011;4274;52.012;8.448;2022-09-09T14:50:12;52.73;;;1.83;;
8474;SDS011;4274;52.012;8.448;2022-09-09T14:52:38;47.83;;;1.80;;
8474;SDS011;4274;52.012;8.448;2022-09-09T14:55:04;51.07;;;1.97;;
8474;SDS011;4274;52.012;8.448;2022-09-09T14:57:30;51.33;;;2.10;;
8474;SDS011;4274;52.012;8.448;2022-09-09T14:59:56;47.30;;;1.80;;
8474;SDS011;4274;52.012;8.448;2022-09-09T15:02:22;47.97;;;1.90;;
8474;SDS011;4274;52.012;8.448;2022-09-09T15:04:47;47.97;;;1.93;;
8474;SDS011;4274;52.012;8.448;2022-09-09T15:07:14;47.70;;;1.90;;
8474;SDS011;4274;52.012;8.448;2022-09-09T15:09:41;48.63;;;1.80;;
8474;SDS011;4274;52.012;8.448;2022-09-09T15:12:07;47.30;;;1.83;;
8474;SDS011;4274;52.012;8.448;2022-09-09T15:14:33;46.47;;;1.83;;
8474;SDS011;4274;52.012;8.448;2022-09-09T15:17:00;50.27;;;2.37;;
8474;SDS011;4274;52.012;8.448;2022-09-09T15:19:26;48.30;;;2.00;;
8474;SDS011;4274;52.012;8.448;2022-09-09T15:21:51;48.20;;;2.10;;
8474;SDS011;4274;52.012;8.448;2022-09-09T15:24:17;48.50;;;1.97;;
8474;SDS011;4274;52.012;8.448;2022-09-09T15:26:42;48.67;;;1.93;;
8474;SDS011;4274;52.012;8.448;2022-09-09T15:29:08;51.00;;;2.43;;
8474;SDS011;4274;52.012;8.448;2022-09-09T15:31:34;48.60;;;2.00;;
8474;SDS011;4274;52.012;8.448;2022-09-09T15:34:01;47.70;;;1.90;;
8474;SDS011;4274;52.012;8.448;2022-09-09T15:36:29;50.60;;;1.77;;
8474;SDS011;4274;52.012;8.448;2022-09-09T15:38:57;46.83;;;1.93;;
8474;SDS011;4274;52.012;8.448;2022-09-09T15:41:24;50.30;;;2.27;;
8474;SDS011;4274;52.012;8.448;2022-09-09T15:43:51;48.40;;;1.90;;
8474;SDS011;4274;52.012;8.448;2022-09-09T15:46:32;47.40;;;2.10;;
8474;SDS011;4274;52.012;8.448;2022-09-09T15:49:10;49.03;;;2.30;;
8474;SDS011;4274;52.012;8.448;2022-09-09T15:51:38;49.67;;;2.03;;
8474;SDS011;4274;52.012;8.448;2022-09-09T15:54:05;47.10;;;1.80;;
8474;SDS011;4274;52.012;8.448;2022-09-09T15:56:31;48.80;;;2.33;;
8474;SDS011;4274;52.012;8.448;2022-09-09T15:58:57;47.60;;;1.80;;
8474;SDS011;4274;52.012;8.448;2022-09-09T16:01:24;48.50;;;2.27;;
8474;SDS011;4274;52.012;8.448;2022-09-09T16:03:51;47.33;;;2.00;;
8474;SDS011;4274;52.012;8.448;2022-09-09T16:06:17;48.03;;;2.03;;
8474;SDS011;4274;52.012;8.448;2022-09-09T16:08:46;47.77;;;2.00;;
8474;SDS011;4274;52.012;8.448;2022-09-09T16:11:21;46.70;;;1.80;;
8474;SDS011;4274;52.012;8.448;2022-09-09T16:13:49;49.07;;;1.80;;
8474;SDS011;4274;52.012;8.448;2022-09-09T16:16:16;50.43;;;2.00;;
8474;SDS011;4274;52.012;8.448;2022-09-09T16:18:48;48.93;;;2.00;;
8474;SDS011;4274;52.012;8.448;2022-09-09T16:21:23;46.50;;;1.90;;
8474;SDS011;4274;52.012;8.448;2022-09-09T16:23:51;49.50;;;2.20;;
8474;SDS011;4274;52.012;8.448;2022-09-09T16:26:21;48.17;;;1.97;;
8474;SDS011;4274;52.012;8.448;2022-09-09T16:28:47;48.80;;;2.13;;
8474;SDS011;4274;52.012;8.448;2022-09-09T16:31:18;46.33;;;1.80;;
8474;SDS011;4274;52.012;8.448;2022-09-09T16:33:45;49.17;;;2.07;;
8474;SDS011;4274;52.012;8.448;2022-09-09T16:36:13;48.77;;;2.17;;
8474;SDS011;4274;52.012;8.448;2022-09-09T16:38:40;49.27;;;2.10;;
8474;SDS011;4274;52.012;8.448;2022-09-09T16:41:08;49.90;;;2.13;;
8474;SDS011;4274;52.012;8.448;2022-09-09T16:43:36;47.70;;;1.90;;
8474;SDS011;4274;52.012;8.448;2022-09-09T16:46:03;46.17;;;1.73;;
8474;SDS011;4274;52.012;8.448;2022-09-09T16:48:36;47.03;;;1.83;;
8474;SDS011;4274;52.012;8.448;2022-09-09T16:51:02;53.60;;;1.97;;
8474;SDS011;4274;52.012;8.448;2022-09-09T16:53:31;49.27;;;2.30;;
8474;SDS011;4274;52.012;8.448;2022-09-09T16:55:57;49.43;;;1.90;;
8474;SDS011;4274;52.012;8.448;2022-09-09T16:58:22;54.50;;;3.73;;
8474;SDS011;4274;52.012;8.448;2022-09-09T17:00:48;51.23;;;2.10;;
8474;SDS011;4274;52.012;8.448;2022-09-09T17:03:16;53.43;;;2.60;;
8474;SDS011;4274;52.012;8.448;2022-09-09T17:05:42;49.60;;;2.13;;
8474;SDS011;4274;52.012;8.448;2022-09-09T17:08:09;54.40;;;2.83;;
8474;SDS011;4274;52.012;8.448;2022-09-09T17:10:39;53.50;;;2.33;;